Open Full Screen Window  High Contrast Mode
Wind Gusting 00 knots
05
May 02, 2016 5:36 AM CDT
Weather Information
Wind Direction
  320 °
Wind Speed
  05 kt (6 mph)
Wind Gust
  00 kt (0 mph)
Altimeter
29.94 in
Visibility
10 SM
Temperature
10° C
50° F
Dewpoint
10° C
50° F
Humidity
100%
Sky Condition
Overcast @ 500 ft
IFR

METAR KAXV 021036Z AUTO 32005KT 10SM OVC005 10/10 A2994 RMK AO2

*Background is not an actual portrayal of the airport.